createdAt,value
2022-12-01T00:01:23.446Z,96.38
2022-12-01T00:03:50.406Z,97.03
2022-12-01T00:06:20.449Z,100.70
2022-12-01T00:09:07.739Z,95.45
2022-12-01T00:11:36.361Z,106.20
2022-12-01T00:14:03.945Z,28.52
2022-12-01T00:17:29.463Z,99.57
2022-12-01T00:19:57.558Z,98.25
2022-12-01T00:22:24.475Z,95.28
2022-12-01T00:24:51.806Z,93.97
2022-12-01T00:27:20.769Z,97.72
2022-12-01T00:29:48.083Z,104.57
2022-12-01T00:32:15.309Z,93.78
2022-12-01T00:34:42.209Z,106.50
2022-12-01T00:37:09.350Z,104.47
2022-12-01T00:39:36.226Z,98.22
2022-12-01T00:42:03.290Z,103.32
2022-12-01T00:44:31.467Z,98.95
2022-12-01T00:47:36.211Z,95.88
2022-12-01T00:50:03.821Z,98.07
2022-12-01T00:52:30.663Z,100.45
2022-12-01T00:54:57.634Z,96.95
2022-12-01T00:58:02.337Z,118.78
2022-12-01T01:00:29.261Z,96.05
2022-12-01T01:02:56.246Z,96.72
2022-12-01T01:05:23.450Z,94.63
2022-12-01T01:08:14.960Z,113.78
2022-12-01T01:10:46.791Z,107.13
2022-12-01T01:13:14.611Z,105.95
2022-12-01T01:15:41.631Z,92.35
2022-12-01T01:18:11.526Z,99.55
2022-12-01T01:20:38.470Z,101.20
2022-12-01T01:23:05.380Z,94.03
2022-12-01T01:25:33.085Z,97.57
2022-12-01T01:28:01.156Z,96.18
2022-12-01T01:30:28.302Z,86.68
2022-12-01T01:32:55.250Z,91.95
2022-12-01T01:35:22.290Z,94.20
2022-12-01T01:38:27.990Z,97.00
2022-12-01T01:40:54.940Z,108.80
2022-12-01T01:43:58.553Z,106.90
2022-12-01T01:46:28.304Z,113.83
2022-12-01T01:49:08.885Z,101.53
2022-12-01T01:51:41.511Z,113.53
2022-12-01T01:54:15.593Z,107.07
2022-12-01T01:56:49.021Z,108.35
2022-12-01T01:59:24.392Z,107.57
2022-12-01T02:02:00.157Z,106.75
2022-12-01T02:04:28.885Z,110.18
2022-12-01T02:06:56.207Z,112.72
2022-12-01T02:09:23.060Z,109.22
2022-12-01T02:12:11.353Z,117.90
2022-12-01T02:14:50.308Z,33.55
2022-12-01T02:17:33.587Z,30.52
2022-12-01T02:20:26.506Z,101.22
2022-12-01T02:23:18.035Z,105.28
2022-12-01T02:26:15.845Z,111.68
2022-12-01T02:29:07.385Z,114.35
2022-12-01T02:31:47.550Z,118.93
2022-12-01T02:34:52.386Z,117.80
2022-12-01T02:37:58.345Z,120.38
2022-12-01T02:40:30.130Z,110.20
2022-12-01T02:43:03.698Z,125.93
2022-12-01T02:45:40.921Z,42.78
2022-12-01T02:48:17.793Z,37.90
2022-12-01T02:50:46.355Z,105.00
2022-12-01T02:53:15.660Z,109.85
2022-12-01T02:55:52.354Z,87.47
2022-12-01T02:58:20.896Z,96.95
2022-12-01T03:01:02.965Z,103.53
2022-12-01T03:03:33.677Z,32.40
2022-12-01T03:06:13.889Z,28.88
2022-12-01T03:09:12.983Z,108.80
2022-12-01T03:12:12.822Z,112.97
2022-12-01T03:14:50.707Z,97.65
2022-12-01T03:17:25.450Z,110.93
2022-12-01T03:20:03.818Z,26.60
2022-12-01T03:22:40.160Z,104.82
2022-12-01T03:25:09.304Z,107.63
2022-12-01T03:28:00.647Z,117.68
2022-12-01T03:30:34.983Z,106.78
2022-12-01T03:33:08.832Z,105.53
2022-12-01T03:35:44.913Z,104.32
2022-12-01T03:38:20.704Z,104.53
2022-12-01T03:40:50.801Z,124.43
2022-12-01T03:43:24.160Z,113.45
2022-12-01T03:46:03.345Z,92.32
2022-12-01T03:48:49.721Z,104.18
2022-12-01T03:51:27.120Z,102.22
2022-12-01T03:54:22.538Z,105.57
2022-12-01T03:56:56.464Z,94.25
2022-12-01T03:59:25.306Z,96.85
2022-12-01T04:01:53.020Z,35.15
2022-12-01T04:04:20.089Z,108.57
2022-12-01T04:07:07.752Z,100.28
2022-12-01T04:09:34.600Z,111.35
2022-12-01T04:12:19.873Z,60.28
2022-12-01T04:14:46.755Z,100.28
2022-12-01T04:17:19.148Z,99.10
2022-12-01T04:19:46.130Z,96.75
2022-12-01T04:22:13.247Z,98.90
2022-12-01T04:24:40.169Z,96.43
2022-12-01T04:27:10.186Z,34.50
2022-12-01T04:29:37.098Z,97.72
2022-12-01T04:32:04.084Z,90.50
2022-12-01T04:34:30.940Z,103.00
2022-12-01T04:37:18.324Z,34.58
2022-12-01T04:39:45.326Z,105.55
2022-12-01T04:42:12.306Z,101.18
2022-12-01T04:44:39.286Z,25.05
2022-12-01T04:47:07.491Z,92.75
2022-12-01T04:49:35.276Z,96.10
2022-12-01T04:52:02.140Z,105.30
2022-12-01T04:54:28.974Z,105.53
2022-12-01T04:57:00.978Z,103.60
2022-12-01T04:59:27.912Z,105.18
2022-12-01T05:01:54.836Z,102.68
2022-12-01T05:04:21.815Z,104.35
2022-12-01T05:06:49.014Z,107.25
2022-12-01T05:09:17.729Z,44.72
2022-12-01T05:11:45.138Z,95.57
2022-12-01T05:14:12.155Z,88.68
2022-12-01T05:17:18.790Z,113.40
2022-12-01T05:20:04.014Z,28.63
2022-12-01T05:23:03.378Z,107.70
2022-12-01T05:25:17.970Z,89.55
2022-12-01T05:28:16.649Z,95.03
2022-12-01T05:30:44.088Z,39.05
2022-12-01T05:33:10.951Z,112.13
2022-12-01T05:35:37.795Z,29.20
2022-12-01T05:38:08.155Z,89.30
2022-12-01T05:40:36.194Z,100.10
2022-12-01T05:43:03.421Z,84.28
2022-12-01T05:45:30.931Z,87.47
2022-12-01T05:48:01.486Z,83.35
2022-12-01T05:50:30.249Z,81.03
2022-12-01T05:52:57.326Z,87.25
2022-12-01T05:55:24.289Z,89.28
2022-12-01T05:57:51.373Z,80.75
2022-12-01T06:00:18.714Z,22.95
2022-12-01T06:02:45.916Z,90.50
2022-12-01T06:05:12.814Z,86.28
2022-12-01T06:07:40.515Z,26.00
2022-12-01T06:10:09.697Z,89.82
2022-12-01T06:12:37.491Z,28.00
2022-12-01T06:15:05.056Z,82.82
2022-12-01T06:17:39.759Z,24.58
2022-12-01T06:20:10.244Z,82.43
2022-12-01T06:22:37.139Z,24.92
2022-12-01T06:25:04.644Z,82.70
2022-12-01T06:28:14.641Z,32.30
2022-12-01T06:30:41.783Z,26.02
2022-12-01T06:33:09.131Z,26.17
2022-12-01T06:35:36.620Z,24.48
2022-12-01T06:38:22.294Z,69.47
2022-12-01T06:40:49.203Z,24.75
2022-12-01T06:43:16.077Z,22.80
2022-12-01T06:45:43.040Z,25.40
2022-12-01T06:48:12.793Z,67.13
2022-12-01T06:50:40.317Z,22.98
2022-12-01T06:53:07.242Z,82.97
2022-12-01T06:55:34.150Z,67.40
2022-12-01T06:58:06.442Z,25.25
2022-12-01T07:00:33.530Z,63.10
2022-12-01T07:03:00.421Z,25.17
2022-12-01T07:05:27.346Z,25.23
2022-12-01T07:07:59.311Z,66.43
2022-12-01T07:10:28.053Z,29.10
2022-12-01T07:12:58.273Z,156.57
2022-12-01T07:15:25.245Z,24.95
2022-12-01T07:17:53.312Z,70.95
2022-12-01T07:20:20.561Z,39.15
2022-12-01T07:22:47.390Z,23.33
2022-12-01T07:25:14.362Z,82.05
2022-12-01T07:27:46.972Z,21.45
2022-12-01T07:30:14.149Z,20.95
2022-12-01T07:32:40.996Z,64.53
2022-12-01T07:35:09.166Z,25.25
2022-12-01T07:37:36.029Z,61.75
2022-12-01T07:40:03.082Z,23.30
2022-12-01T07:42:29.960Z,20.85
2022-12-01T07:44:56.925Z,85.25
2022-12-01T07:47:24.071Z,21.80
2022-12-01T07:49:51.121Z,62.72
2022-12-01T07:52:18.257Z,24.40
2022-12-01T07:54:45.149Z,20.73
2022-12-01T07:57:14.808Z,20.55
2022-12-01T07:59:41.811Z,19.42
2022-12-01T08:02:10.481Z,20.73
2022-12-01T08:04:37.437Z,21.40
2022-12-01T08:07:04.609Z,24.10
2022-12-01T08:09:31.502Z,21.38
2022-12-01T08:11:58.495Z,22.00
2022-12-01T08:14:25.376Z,21.05
2022-12-01T08:16:53.530Z,22.58
2022-12-01T08:19:20.801Z,62.42
2022-12-01T08:21:47.690Z,19.70
2022-12-01T08:24:14.803Z,26.55
2022-12-01T08:27:02.657Z,20.73
2022-12-01T08:29:29.581Z,71.20
2022-12-01T08:31:58.972Z,21.63
2022-12-01T08:34:26.319Z,69.65
2022-12-01T08:36:54.340Z,25.42
2022-12-01T08:39:21.285Z,64.60
2022-12-01T08:41:48.205Z,18.27
2022-12-01T08:44:15.102Z,70.70
2022-12-01T08:46:43.309Z,21.65
2022-12-01T08:49:10.477Z,68.00
2022-12-01T08:51:37.494Z,68.20
2022-12-01T08:54:04.625Z,21.35
2022-12-01T08:56:39.594Z,66.82
2022-12-01T08:59:07.221Z,63.13
2022-12-01T09:01:34.937Z,67.78
2022-12-01T09:04:06.528Z,78.35
2022-12-01T09:06:45.314Z,25.42
2022-12-01T09:09:16.361Z,69.13
2022-12-01T09:11:44.174Z,19.98
2022-12-01T09:14:12.802Z,62.50
2022-12-01T09:16:41.398Z,64.32
2022-12-01T09:19:08.309Z,20.80
2022-12-01T09:21:37.497Z,62.85
2022-12-01T09:24:06.809Z,24.33
2022-12-01T09:26:36.853Z,65.22
2022-12-01T09:29:08.266Z,64.22
2022-12-01T09:31:36.109Z,63.53
2022-12-01T09:34:05.918Z,66.40
2022-12-01T09:36:35.353Z,63.92
2022-12-01T09:39:03.560Z,65.57
2022-12-01T09:41:35.386Z,64.00
2022-12-01T09:44:24.931Z,65.53
2022-12-01T09:47:19.250Z,22.38
2022-12-01T09:50:10.764Z,61.13
2022-12-01T09:52:47.107Z,21.85
2022-12-01T09:55:16.219Z,59.72
2022-12-01T09:57:46.851Z,61.92
2022-12-01T10:00:20.987Z,55.78
2022-12-01T10:02:52.623Z,54.80
2022-12-01T10:05:22.493Z,50.55
2022-12-01T10:08:02.608Z,47.97
2022-12-01T10:10:40.568Z,47.50
2022-12-01T10:13:24.445Z,41.00
2022-12-01T10:18:37.421Z,40.40
2022-12-01T10:21:42.088Z,39.55
2022-12-01T10:24:26.959Z,36.38
2022-12-01T10:27:26.025Z,38.65
2022-12-01T10:30:03.554Z,37.70
2022-12-01T10:32:41.939Z,41.72
2022-12-01T10:35:15.420Z,36.55
2022-12-01T10:37:45.464Z,35.85
2022-12-01T10:40:16.784Z,37.85
2022-12-01T10:42:46.495Z,48.05
2022-12-01T10:45:20.719Z,38.28
2022-12-01T10:48:09.452Z,33.90
2022-12-01T10:50:37.277Z,37.25
2022-12-01T10:53:04.816Z,39.53
2022-12-01T10:55:40.815Z,44.80
2022-12-01T10:58:19.058Z,45.40
2022-12-01T11:00:59.940Z,44.47
2022-12-01T11:03:35.030Z,37.20
2022-12-01T11:06:05.939Z,42.40
2022-12-01T11:08:45.758Z,40.03
2022-12-01T11:11:43.191Z,48.38
2022-12-01T11:14:21.672Z,42.03
2022-12-01T11:16:51.547Z,38.35
2022-12-01T11:19:32.679Z,34.72
2022-12-01T11:22:01.709Z,28.48
2022-12-01T11:24:42.705Z,25.38
2022-12-01T11:27:20.077Z,28.38
2022-12-01T11:29:50.387Z,24.90
2022-12-01T11:32:21.893Z,36.53
2022-12-01T11:35:14.714Z,30.80
2022-12-01T11:38:27.637Z,34.13
2022-12-01T11:40:54.267Z,31.48
2022-12-01T11:43:32.009Z,28.73
2022-12-01T11:46:04.779Z,28.70
2022-12-01T11:48:36.847Z,26.20
2022-12-01T11:51:26.681Z,32.83
2022-12-01T11:54:07.426Z,26.30
2022-12-01T11:56:34.643Z,32.15
2022-12-01T11:59:10.104Z,30.25
2022-12-01T12:01:50.559Z,27.85
2022-12-01T12:04:23.330Z,33.90
2022-12-01T12:07:34.332Z,24.17
2022-12-01T12:10:13.219Z,27.52
2022-12-01T12:13:18.917Z,26.92
2022-12-01T12:15:51.576Z,24.20
2022-12-01T12:18:45.922Z,28.03
2022-12-01T12:21:30.860Z,21.92
2022-12-01T12:24:23.636Z,31.92
2022-12-01T12:27:45.129Z,30.33
2022-12-01T12:30:26.222Z,35.10
2022-12-01T12:33:14.388Z,32.83
2022-12-01T12:36:04.438Z,29.58
2022-12-01T12:38:53.152Z,36.80
2022-12-01T12:41:42.806Z,34.42
2022-12-01T12:44:47.150Z,29.52
2022-12-01T12:47:35.200Z,27.65
2022-12-01T12:50:17.239Z,29.70
2022-12-01T12:52:49.061Z,30.55
2022-12-01T12:55:24.789Z,29.98
2022-12-01T12:57:57.466Z,27.23
2022-12-01T13:00:29.076Z,24.23
2022-12-01T13:03:47.387Z,25.75
2022-12-01T13:06:39.417Z,34.63
2022-12-01T13:09:35.939Z,28.52
2022-12-01T13:12:19.693Z,20.75
2022-12-01T13:14:54.116Z,23.95
2022-12-01T13:17:41.274Z,21.92
2022-12-01T13:20:15.283Z,31.80
2022-12-01T13:22:42.498Z,30.42
2022-12-01T13:25:14.136Z,30.13
2022-12-01T13:27:44.054Z,34.80
2022-12-01T13:30:25.595Z,22.17
2022-12-01T13:33:06.276Z,17.25
2022-12-01T13:35:40.233Z,24.20
2022-12-01T13:38:33.970Z,30.30
2022-12-01T13:41:34.213Z,19.50
2022-12-01T13:44:23.587Z,37.28
2022-12-01T13:47:02.627Z,29.17
2022-12-01T13:49:35.079Z,25.67
2022-12-01T13:52:26.889Z,33.88
2022-12-01T13:54:59.832Z,31.63
2022-12-01T13:57:33.660Z,23.50
2022-12-01T14:00:00.651Z,18.77
2022-12-01T14:02:30.472Z,29.58
2022-12-01T14:05:22.355Z,31.50
2022-12-01T14:08:46.827Z,28.25
2022-12-01T14:11:25.586Z,21.88
2022-12-01T14:14:01.036Z,32.90
2022-12-01T14:16:49.916Z,27.20
2022-12-01T14:19:38.000Z,28.42
2022-12-01T14:22:07.187Z,23.92
2022-12-01T14:24:43.680Z,31.48
2022-12-01T14:27:12.196Z,31.40
2022-12-01T14:29:43.220Z,22.67
2022-12-01T14:32:10.117Z,25.20
2022-12-01T14:34:38.206Z,29.10
2022-12-01T14:37:14.368Z,30.30
2022-12-01T14:39:45.279Z,24.35
2022-12-01T14:42:51.194Z,20.27
2022-12-01T14:45:28.363Z,29.17
2022-12-01T14:48:09.933Z,25.35
2022-12-01T14:50:46.971Z,25.77
2022-12-01T14:53:36.196Z,19.63
2022-12-01T14:56:14.766Z,21.98
2022-12-01T14:59:01.193Z,28.55
2022-12-01T15:01:36.952Z,22.80
2022-12-01T15:04:06.089Z,26.35
2022-12-01T15:06:34.991Z,30.40
2022-12-01T15:09:32.331Z,28.58
2022-12-01T15:11:58.051Z,26.95
2022-12-01T15:14:36.888Z,33.55
2022-12-01T15:17:05.746Z,22.30
2022-12-01T15:19:38.531Z,25.45
2022-12-01T15:22:15.816Z,31.88
2022-12-01T15:24:43.736Z,27.88
2022-12-01T15:27:31.217Z,21.50
2022-12-01T15:30:03.531Z,23.20
2022-12-01T15:32:32.576Z,25.75
2022-12-01T15:35:01.987Z,26.35
2022-12-01T15:37:35.461Z,27.73
2022-12-01T15:43:05.538Z,26.90
2022-12-01T15:45:49.706Z,24.98
2022-12-01T15:48:36.644Z,28.27
2022-12-01T15:51:03.482Z,27.67
2022-12-01T15:53:33.501Z,29.20
2022-12-01T15:56:04.682Z,30.10
2022-12-01T15:58:36.242Z,25.30
2022-12-01T16:01:18.615Z,36.53
2022-12-01T16:03:56.106Z,32.40
2022-12-01T16:06:28.913Z,28.30
2022-12-01T16:09:23.831Z,30.47
2022-12-01T16:12:18.681Z,33.50
2022-12-01T16:15:08.643Z,33.65
2022-12-01T16:17:45.942Z,32.22
2022-12-01T16:20:17.909Z,31.23
2022-12-01T16:22:46.832Z,31.17
2022-12-01T16:25:32.973Z,30.40
2022-12-01T16:28:05.272Z,31.98
2022-12-01T16:30:40.013Z,33.78
2022-12-01T16:33:22.380Z,33.00
2022-12-01T16:35:52.868Z,34.63
2022-12-01T16:38:24.393Z,31.58
2022-12-01T16:40:59.674Z,35.08
2022-12-01T16:43:28.139Z,35.22
2022-12-01T16:46:01.483Z,34.72
2022-12-01T16:48:30.570Z,37.47
2022-12-01T16:51:01.536Z,39.42
2022-12-01T16:53:28.689Z,42.03
2022-12-01T16:56:03.366Z,38.83
2022-12-01T16:58:30.926Z,41.53
2022-12-01T17:00:58.183Z,38.88
2022-12-01T17:03:28.318Z,42.10
2022-12-01T17:05:55.849Z,47.17
2022-12-01T17:08:23.817Z,45.10
2022-12-01T17:10:51.548Z,63.15
2022-12-01T17:13:21.644Z,75.03
2022-12-01T17:15:50.790Z,60.50
2022-12-01T17:18:19.599Z,80.60
2022-12-01T17:21:01.793Z,72.15
2022-12-01T17:23:29.819Z,80.70
2022-12-01T17:25:56.703Z,69.70
2022-12-01T17:28:45.348Z,84.53
2022-12-01T17:31:12.629Z,90.95
2022-12-01T17:33:39.931Z,89.53
2022-12-01T17:36:14.544Z,77.28
2022-12-01T17:39:00.440Z,33.95
2022-12-01T17:41:32.687Z,72.60
2022-12-01T17:44:03.274Z,94.53
2022-12-01T17:46:31.219Z,44.95
2022-12-01T17:48:58.668Z,87.32
2022-12-01T17:51:25.749Z,26.30
2022-12-01T17:53:54.630Z,71.82
2022-12-01T17:56:21.577Z,27.67
2022-12-01T17:58:50.549Z,87.28
2022-12-01T18:01:19.499Z,28.00
2022-12-01T18:03:47.466Z,69.55
2022-12-01T18:06:15.635Z,69.38
2022-12-01T18:08:43.040Z,76.13
2022-12-01T18:11:12.690Z,73.68
2022-12-01T18:13:42.278Z,69.57
2022-12-01T18:16:12.981Z,64.03
2022-12-01T18:18:41.387Z,68.32
2022-12-01T18:21:13.946Z,71.18
2022-12-01T18:23:41.134Z,27.73
2022-12-01T18:26:15.774Z,76.03
2022-12-01T18:29:28.725Z,80.82
2022-12-01T18:32:00.079Z,28.13
2022-12-01T18:34:31.247Z,84.30
2022-12-01T18:36:58.602Z,84.72
2022-12-01T18:39:25.563Z,80.95
2022-12-01T18:41:52.495Z,78.72
2022-12-01T18:44:20.991Z,84.18
2022-12-01T18:46:50.515Z,79.45
2022-12-01T18:49:17.748Z,93.70
2022-12-01T18:51:44.633Z,78.88
2022-12-01T18:54:14.497Z,85.88
2022-12-01T18:56:46.358Z,81.90
2022-12-01T18:59:13.986Z,83.05
2022-12-01T19:01:44.183Z,80.13
2022-12-01T19:04:11.549Z,84.78
2022-12-01T19:07:18.089Z,82.97
2022-12-01T19:09:45.595Z,84.03
2022-12-01T19:12:12.576Z,85.35
2022-12-01T19:14:39.676Z,86.47
2022-12-01T19:17:06.880Z,84.70
2022-12-01T19:19:37.340Z,84.15
2022-12-01T19:22:05.015Z,83.10
2022-12-01T19:24:32.457Z,80.38
2022-12-01T19:26:59.480Z,85.50
2022-12-01T19:29:26.362Z,84.10
2022-12-01T19:31:54.693Z,82.93
2022-12-01T19:34:22.050Z,86.93
2022-12-01T19:36:52.237Z,77.22
2022-12-01T19:39:19.898Z,82.47
2022-12-01T19:41:46.945Z,81.95
2022-12-01T19:44:13.980Z,89.15
2022-12-01T19:46:41.202Z,80.22
2022-12-01T19:49:09.481Z,81.78
2022-12-01T19:51:38.356Z,84.18
2022-12-01T19:54:07.890Z,87.60
2022-12-01T19:56:36.308Z,87.88
2022-12-01T19:59:03.281Z,87.35
2022-12-01T20:01:30.231Z,38.60
2022-12-01T20:03:57.206Z,88.13
2022-12-01T20:06:26.474Z,91.20
2022-12-01T20:08:56.183Z,86.03
2022-12-01T20:11:23.833Z,93.65
2022-12-01T20:13:52.724Z,36.28
2022-12-01T20:16:22.530Z,33.67
2022-12-01T20:18:50.260Z,92.47
2022-12-01T20:21:23.614Z,90.63
2022-12-01T20:23:57.713Z,87.88
2022-12-01T20:26:30.351Z,90.38
2022-12-01T20:29:04.657Z,96.35
2022-12-01T20:31:32.971Z,98.78
2022-12-01T20:37:52.492Z,89.55
2022-12-01T20:40:20.084Z,101.53
2022-12-01T20:42:46.981Z,97.03
2022-12-01T20:45:13.837Z,110.95
2022-12-01T20:47:42.953Z,102.40
2022-12-01T20:50:10.159Z,92.18
2022-12-01T20:52:39.905Z,40.40
2022-12-01T20:55:07.398Z,99.28
2022-12-01T20:57:38.344Z,101.68
2022-12-01T21:00:05.857Z,113.13
2022-12-01T21:02:32.761Z,103.55
2022-12-01T21:04:59.892Z,108.97
2022-12-01T21:07:27.303Z,100.10
2022-12-01T21:09:54.272Z,99.50
2022-12-01T21:12:39.713Z,109.18
2022-12-01T21:15:22.075Z,107.75
2022-12-01T21:17:55.149Z,99.18
2022-12-01T21:20:37.476Z,107.57
2022-12-01T21:23:10.253Z,104.38
2022-12-01T21:25:41.583Z,114.47
2022-12-01T21:28:19.548Z,107.47
2022-12-01T21:31:01.885Z,108.18
2022-12-01T21:33:35.709Z,109.50
2022-12-01T21:36:06.915Z,111.32
2022-12-01T21:38:37.189Z,108.25
2022-12-01T21:41:20.621Z,110.18
2022-12-01T21:43:47.519Z,103.03
2022-12-01T21:46:16.866Z,106.28
2022-12-01T21:48:46.050Z,116.05
2022-12-01T21:51:20.220Z,106.68
2022-12-01T21:53:48.736Z,110.88
2022-12-01T21:56:21.292Z,114.50
2022-12-01T21:58:49.492Z,108.80
2022-12-01T22:01:25.266Z,113.82
2022-12-01T22:03:52.202Z,100.95
2022-12-01T22:06:38.708Z,108.63
2022-12-01T22:09:22.341Z,103.38
2022-12-01T22:11:55.760Z,99.72
2022-12-01T22:14:42.864Z,44.08
2022-12-01T22:17:10.133Z,102.70
2022-12-01T22:19:47.209Z,104.05
2022-12-01T22:22:28.885Z,98.97
2022-12-01T22:25:21.145Z,100.95
2022-12-01T22:27:49.107Z,27.25
2022-12-01T22:30:22.228Z,104.97
2022-12-01T22:32:59.566Z,111.18
2022-12-01T22:35:48.289Z,105.00
2022-12-01T22:38:31.997Z,104.72
2022-12-01T22:41:09.156Z,36.35
2022-12-01T22:43:43.836Z,98.97
2022-12-01T22:46:24.478Z,97.30
2022-12-01T22:48:57.171Z,105.47
2022-12-01T22:51:28.673Z,105.25
2022-12-01T22:54:14.433Z,112.82
2022-12-01T22:56:49.936Z,101.38
2022-12-01T22:59:21.590Z,100.95
2022-12-01T23:01:57.532Z,97.75
2022-12-01T23:04:44.567Z,100.20
2022-12-01T23:07:23.819Z,110.55
2022-12-01T23:09:50.823Z,110.20
2022-12-01T23:12:29.601Z,131.05
2022-12-01T23:15:28.012Z,114.60
2022-12-01T23:18:14.103Z,112.78
2022-12-01T23:20:42.317Z,120.68
2022-12-01T23:23:14.078Z,131.98
2022-12-01T23:25:42.718Z,109.72
2022-12-01T23:28:12.354Z,112.57
2022-12-01T23:30:41.738Z,108.70
2022-12-01T23:33:18.858Z,118.10
2022-12-01T23:35:47.186Z,108.63
2022-12-01T23:38:19.900Z,105.70
2022-12-01T23:40:47.798Z,29.27
2022-12-01T23:43:25.168Z,106.22
2022-12-01T23:46:09.693Z,103.55
2022-12-01T23:48:49.381Z,108.00
2022-12-01T23:51:22.967Z,109.47
2022-12-01T23:56:21.279Z,106.20
2022-12-01T23:58:51.633Z,88.97
